Thunder radar more information blitzortung!


Radar de pluja more information rain snow radar


Visita la nostra xarxa de llocs de meteo:

Template documentation
and downloads

And another site



No particular awareness of the weather is required.    There are no Weather-warnings

Pagina Historial Weather Underground text

Diari Resum Agost 6, 2017 Unitats:  Imperial    Mètric   Tant
« Previous Dia
SegĂźent Dia »
Diari Setmana Mensual Anual Personalitzada
  Maxima: Minima: Media:
Temperatura: TemperatureC °F 22.2 °F 28 °F
Punt de rosada: DewpointC °F 16.6 °F 18.5 °F
Humitat: Humidity % 39 % 57 %
Wind Speed: WindSpeedKMH mph 0.0 mph 6.7 mph
RĂ fegues de vent: WindSpeedGustKMH mph - -
Vent:- - SSW
Pression baro: PressurehPa in 1013.8 in -
Precipitacions: 0.0 in    
Historical Graphs
 
 
Dades de taula per Agost 6, 2017
Temps Temperatura Punt de rosada Pression baro Vent Wind Speed RĂ fegues de vent Humitat Rainfall Rate (Hourly)
TemperatureC °F DewpointC °F PressurehPa in Calm     Humidity % HourlyPrecipMM in
00:00 24.1 °F 18.3 °F 1013.8 in NNE 1.6 mph 3.2 mph 70 % 0.0 in
00:01 26.7 °F 16.6 °F 1013.8 in Calm     54 % 0.0 in
00:10 23.9 °F 18.3 °F 1013.8 in Calm   3.2 mph 71 % 0.0 in
00:20 23.8 °F 18.2 °F 1013.8 in Calm   1.6 mph 71 % 0.0 in
00:30 23.9 °F 18.6 °F 1013.8 in Calm   1.6 mph 72 % 0.0 in
00:40 23.6 °F 18.3 °F 1013.8 in Calm   3.2 mph 72 % 0.0 in
00:50 23.7 °F 18.3 °F 1013.8 in North 3.2 mph 3.2 mph 72 % 0.0 in
01:00 23.7 °F 18.6 °F 1013.8 in Calm   3.2 mph 73 % 0.0 in
01:10 23.8 °F 18.4 °F 1014.8 in Calm   1.6 mph 72 % 0.0 in
01:20 23.8 °F 18.4 °F 1013.8 in Calm   1.6 mph 72 % 0.0 in
01:30 23.6 °F 18.3 °F 1013.8 in Calm   3.2 mph 72 % 0.0 in
01:40 23.3 °F 17.9 °F 1014.8 in SW 3.2 mph 4.8 mph 72 % 0.0 in
01:50 23.3 °F 18.2 °F 1014.8 in SW 1.6 mph 3.2 mph 73 % 0.0 in
02:00 23.4 °F 18.3 °F 1014.8 in Calm   1.6 mph 73 % 0.0 in
02:10 23.3 °F 18.2 °F 1014.8 in NW 1.6 mph 3.2 mph 73 % 0.0 in
02:20 23.2 °F 18.3 °F 1014.8 in SW 1.6 mph 1.6 mph 74 % 0.0 in
02:30 23.2 °F 18.3 °F 1014.8 in SW 1.6 mph 3.2 mph 74 % 0.0 in
02:40 23.2 °F 18.3 °F 1014.8 in WSW 1.6 mph 4.8 mph 74 % 0.0 in
02:50 23.7 °F 18.8 °F 1014.8 in North 1.6 mph 3.2 mph 74 % 0.0 in
03:00 23.6 °F 18.5 °F 1014.8 in North 1.6 mph 3.2 mph 73 % 0.0 in
03:10 23.5 °F 18.6 °F 1014.8 in SW 1.6 mph 3.2 mph 74 % 0.0 in
03:20 23.6 °F 18.7 °F 1015.8 in SW 3.2 mph 3.2 mph 74 % 0.0 in
03:30 23.8 °F 18.4 °F 1015.8 in Calm   3.2 mph 72 % 0.0 in
03:40 24.3 °F 18.2 °F 1015.8 in SW 1.6 mph 3.2 mph 69 % 0.0 in
03:50 24.7 °F 18.6 °F 1015.8 in Calm   1.6 mph 69 % 0.0 in
04:00 25.5 °F 18.9 °F 1015.8 in SSW 1.6 mph 3.2 mph 67 % 0.0 in
04:10 26.4 °F 18.8 °F 1015.8 in SSW 3.2 mph 3.2 mph 63 % 0.0 in
04:20 26.8 °F 18.7 °F 1015.8 in SSW 1.6 mph 3.2 mph 61 % 0.0 in
04:30 26.9 °F 18.7 °F 1015.8 in SW 1.6 mph 4.8 mph 61 % 0.0 in
04:40 27.3 °F 18.6 °F 1015.8 in SW 3.2 mph 4.8 mph 59 % 0.0 in
04:50 28.2 °F 19.4 °F 1015.8 in Calm   3.2 mph 59 % 0.0 in
05:00 28.7 °F 19.1 °F 1015.8 in SE 3.2 mph 4.8 mph 56 % 0.0 in
05:10 28.2 °F 18.0 °F 1014.8 in East 4.8 mph 4.8 mph 54 % 0.0 in
05:20 28.8 °F 18.8 °F 1015.8 in ESE 3.2 mph 3.2 mph 55 % 0.0 in
05:30 30.1 °F 19.4 °F 1015.8 in SSE 1.6 mph 6.4 mph 53 % 0.0 in
05:40 30.3 °F 19.3 °F 1015.8 in Calm   4.8 mph 52 % 0.0 in
05:50 30.1 °F 18.8 °F 1015.8 in South 1.6 mph 6.4 mph 51 % 0.0 in
06:00 30.8 °F 19.5 °F 1015.8 in South 1.6 mph 6.4 mph 51 % 0.0 in
06:10 30.9 °F 18.9 °F 1015.8 in SSW 1.6 mph 3.2 mph 49 % 0.0 in
06:20 31.3 °F 19.0 °F 1015.8 in SSW 4.8 mph 4.8 mph 48 % 0.0 in
06:30 31.2 °F 18.6 °F 1015.8 in SW 3.2 mph 6.4 mph 47 % 0.0 in
06:40 31.4 °F 18.4 °F 1015.8 in West 3.2 mph 4.8 mph 46 % 0.0 in
06:50 32.4 °F 18.9 °F 1015.8 in NW 1.6 mph 4.8 mph 45 % 0.0 in
07:00 33.0 °F 18.8 °F 1015.8 in SSW 3.2 mph 4.8 mph 43 % 0.0 in
07:10 33.7 °F 19.0 °F 1014.8 in SSE 3.2 mph 6.4 mph 42 % 0.0 in
07:20 32.9 °F 18.7 °F 1015.8 in South 4.8 mph 9.7 mph 43 % 0.0 in
07:30 32.8 °F 18.2 °F 1015.8 in SW 4.8 mph 4.8 mph 42 % 0.0 in
07:40 33.8 °F 18.7 °F 1014.8 in SW 3.2 mph 4.8 mph 41 % 0.0 in
07:50 33.9 °F 18.8 °F 1014.8 in SSW 1.6 mph 4.8 mph 41 % 0.0 in
08:00 34.1 °F 18.6 °F 1014.8 in SSW 1.6 mph 6.4 mph 40 % 0.0 in
08:10 34.2 °F 18.3 °F 1014.8 in SSW 4.8 mph 8.0 mph 39 % 0.0 in
08:20 34.7 °F 19.1 °F 1014.8 in SSW 3.2 mph 6.4 mph 40 % 0.0 in
08:30 34.0 °F 18.1 °F 1014.8 in SSW 3.2 mph 9.7 mph 39 % 0.0 in
08:40 33.9 °F 18.4 °F 1014.8 in South 3.2 mph 8.0 mph 40 % 0.0 in
08:50 32.8 °F 18.2 °F 1013.8 in SW 3.2 mph 9.7 mph 42 % 0.0 in
09:00 33.6 °F 18.6 °F 1013.8 in SW 8.0 mph 9.7 mph 41 % 0.0 in
09:10 33.4 °F 18.7 °F 1014.8 in SW 8.0 mph 9.7 mph 42 % 0.0 in
09:20 33.7 °F 18.6 °F 1014.8 in SW 8.0 mph 9.7 mph 41 % 0.0 in
09:30 33.7 °F 18.6 °F 1014.8 in SW 3.2 mph 16.1 mph 41 % 0.0 in
09:40 34.1 °F 19.0 °F 1014.8 in SSW 8.0 mph 12.9 mph 41 % 0.0 in
09:50 33.6 °F 18.6 °F 1014.8 in SW 4.8 mph 11.3 mph 41 % 0.0 in
10:00 34.4 °F 18.8 °F 1014.8 in SW 4.8 mph 6.4 mph 40 % 0.0 in
10:10 34.2 °F 18.3 °F 1014.8 in SW 4.8 mph 12.9 mph 39 % 0.0 in
10:20 34.0 °F 18.1 °F 1014.8 in SW 9.7 mph 12.9 mph 39 % 0.0 in
10:30 34.0 °F 18.1 °F 1014.8 in SW 4.8 mph 4.8 mph 39 % 0.0 in
10:40 34.6 °F 19.1 °F 1014.8 in SSW 4.8 mph 8.0 mph 40 % 0.0 in
15:44 34.3 °F 18.3 °F 1014.8 in West 18.5 mph 18.5 mph 39 % 0.0 in
15:49 34.4 °F 18.4 °F 1013.8 in SW 16.7 mph 16.7 mph 39 % 0.0 in
15:54 34.4 °F 18.4 °F 1013.8 in South 24.1 mph 24.1 mph 39 % 0.0 in
15:59 34.1 °F 18.2 °F 1013.8 in SW 9.3 mph 10.3 mph 39 % 0.0 in
16:04 33.5 °F 18.1 °F 1013.8 in WSW 20.1 mph 20.1 mph 40 % 0.0 in
16:09 33.2 °F 18.2 °F 1013.8 in WSW 16.4 mph 16.4 mph 41 % 0.0 in
16:14 33.2 °F 18.2 °F 1013.8 in SSW 18.5 mph 18.5 mph 41 % 0.0 in
16:19 33.5 °F 18.4 °F 1013.8 in WSW 20.4 mph 20.4 mph 41 % 0.0 in
16:24 33.3 °F 18.3 °F 1013.8 in SW 13.0 mph 13.0 mph 41 % 0.0 in
16:29 33.1 °F 18.4 °F 1013.8 in South 9.3 mph 9.3 mph 42 % 0.0 in
16:34 32.9 °F 18.7 °F 1013.8 in SSW 13.0 mph 13.0 mph 43 % 0.0 in
16:39 33.1 °F 18.4 °F 1013.8 in SSW 13.0 mph 13.0 mph 42 % 0.0 in
16:44 33.0 °F 18.8 °F 1013.8 in South 17.5 mph 17.5 mph 43 % 0.0 in
16:49 32.7 °F 18.5 °F 1013.8 in South 22.2 mph 22.2 mph 43 % 0.0 in
16:54 32.3 °F 18.5 °F 1013.8 in WSW 14.8 mph 14.8 mph 44 % 0.0 in
16:59 32.6 °F 18.8 °F 1013.8 in SW 13.0 mph 13.0 mph 44 % 0.0 in
17:04 32.2 °F 18.8 °F 1013.8 in SSW 14.8 mph 14.8 mph 45 % 0.0 in
17:09 31.9 °F 18.8 °F 1013.8 in SSW 16.7 mph 16.7 mph 46 % 0.0 in
17:14 32.3 °F 18.8 °F 1013.8 in WSW 7.4 mph 7.4 mph 45 % 0.0 in
17:19 32.4 °F 19.3 °F 1013.8 in SW 19.5 mph 19.5 mph 46 % 0.0 in
17:24 31.9 °F 18.8 °F 1013.8 in WSW 18.5 mph 18.5 mph 46 % 0.0 in
17:29 32.4 °F 19.3 °F 1013.8 in West 9.3 mph 9.3 mph 46 % 0.0 in
17:34 31.7 °F 19.0 °F 1013.8 in South 13.0 mph 13.0 mph 47 % 0.0 in
17:39 30.9 °F 18.6 °F 1013.8 in SW 7.4 mph 7.4 mph 48 % 0.0 in
17:44 30.6 °F 18.7 °F 1013.8 in WSW 9.3 mph 9.3 mph 49 % 0.0 in
17:49 30.3 °F 18.7 °F 1014.8 in West 14.8 mph 14.8 mph 50 % 0.0 in
17:54 30.1 °F 18.8 °F 1014.8 in SW 24.1 mph 24.1 mph 51 % 0.0 in
17:59 30.3 °F 19.1 °F 1014.8 in SSW 11.1 mph 11.1 mph 51 % 0.0 in
18:04 30.6 °F 19.3 °F 1014.8 in SW 16.4 mph 16.4 mph 51 % 0.0 in
18:09 30.4 °F 19.1 °F 1014.8 in South 13.0 mph 13.0 mph 51 % 0.0 in
18:14 30.3 °F 19.1 °F 1014.8 in SSW 11.1 mph 11.1 mph 51 % 0.0 in
18:15 30.4 °F 19.1 °F 1014.8 in SW 14.8 mph 14.8 mph 51 % 0.0 in
18:20 30.7 °F 19.4 °F 1013.8 in SW 9.3 mph 9.3 mph 51 % 0.0 in
18:25 30.2 °F 19.3 °F 1013.8 in SW 10.3 mph 10.3 mph 52 % 0.0 in
18:30 29.9 °F 19.0 °F 1013.8 in SW 14.8 mph 14.8 mph 52 % 0.0 in
18:35 29.7 °F 19.1 °F 1013.8 in South 13.0 mph 13.0 mph 53 % 0.0 in
18:40 29.5 °F 18.9 °F 1013.8 in South 16.7 mph 16.7 mph 53 % 0.0 in
18:45 29.4 °F 19.1 °F 1013.8 in SSW 9.3 mph 9.3 mph 54 % 0.0 in
18:50 29.4 °F 19.1 °F 1014.8 in SSW 14.8 mph 14.8 mph 54 % 0.0 in
18:55 29.4 °F 19.1 °F 1014.8 in SW 13.0 mph 13.0 mph 54 % 0.0 in
19:05 29.3 °F 19.1 °F 1014.8 in SSE 16.7 mph 16.7 mph 54 % 0.0 in
19:10 29.0 °F 19.1 °F 1014.8 in SSW 9.3 mph 9.3 mph 55 % 0.0 in
19:15 29.2 °F 18.9 °F 1014.8 in WSW 14.0 mph 14.0 mph 54 % 0.0 in
19:20 29.1 °F 19.1 °F 1013.8 in West 11.1 mph 11.1 mph 55 % 0.0 in
19:25 29.2 °F 19.2 °F 1013.8 in SW 9.5 mph 9.5 mph 55 % 0.0 in
19:30 29.1 °F 19.1 °F 1013.8 in SW 9.3 mph 9.3 mph 55 % 0.0 in
19:35 28.7 °F 19.1 °F 1013.8 in SSW 13.0 mph 13.0 mph 56 % 0.0 in
19:40 28.5 °F 19.2 °F 1013.8 in SW 11.1 mph 11.1 mph 57 % 0.0 in
19:45 28.4 °F 19.1 °F 1013.8 in WSW 9.3 mph 9.3 mph 57 % 0.0 in
19:50 28.4 °F 19.1 °F 1014.8 in SSW 9.3 mph 9.3 mph 57 % 0.0 in
19:55 28.0 °F 18.7 °F 1014.8 in WSW 14.8 mph 14.8 mph 57 % 0.0 in
20:00 28.0 °F 18.9 °F 1014.8 in SW 9.3 mph 9.3 mph 58 % 0.0 in
20:05 27.8 °F 18.8 °F 1013.8 in SW 14.8 mph 14.8 mph 58 % 0.0 in
20:15 27.5 °F 18.8 °F 1013.8 in ESE 9.3 mph 9.3 mph 59 % 0.0 in
20:25 27.2 °F 18.8 °F 1013.8 in SSW 9.3 mph 9.3 mph 60 % 0.0 in
20:30 27.1 °F 18.7 °F 1013.8 in South 5.6 mph 5.6 mph 60 % 0.0 in
20:35 27.0 °F 18.8 °F 1013.8 in SSW 7.4 mph 7.4 mph 61 % 0.0 in
20:40 26.8 °F 18.9 °F 1013.8 in SW 9.3 mph 9.3 mph 62 % 0.0 in
20:45 26.6 °F 18.4 °F 1013.8 in South 9.3 mph 9.3 mph 61 % 0.0 in
20:50 26.5 °F 18.6 °F 1014.8 in SSW 4.2 mph 4.2 mph 62 % 0.0 in
20:55 26.4 °F 18.8 °F 1014.8 in West 9.3 mph 9.3 mph 63 % 0.0 in
21:00 26.3 °F 18.4 °F 1014.8 in SW 7.4 mph 7.4 mph 62 % 0.0 in
21:05 26.0 °F 18.4 °F 1014.8 in WSW 11.4 mph 11.4 mph 63 % 0.0 in
21:10 25.8 °F 18.2 °F 1014.8 in SW 11.1 mph 11.1 mph 63 % 0.0 in
21:15 25.7 °F 18.4 °F 1014.8 in WSW 5.6 mph 5.6 mph 64 % 0.0 in
21:20 25.6 °F 18.3 °F 1014.8 in WSW 3.7 mph 3.7 mph 64 % 0.0 in
21:25 25.6 °F 18.3 °F 1014.8 in SSW 7.4 mph 7.4 mph 64 % 0.0 in
21:30 25.5 °F 18.2 °F 1014.8 in SW 9.3 mph 9.3 mph 64 % 0.0 in
21:35 25.4 °F 18.1 °F 1014.8 in SW 9.3 mph 9.3 mph 64 % 0.0 in
21:40 25.3 °F 18.2 °F 1014.8 in SSW 3.9 mph 3.9 mph 65 % 0.0 in
21:45 25.2 °F 18.2 °F 1014.8 in SW 5.6 mph 5.6 mph 65 % 0.0 in
21:50 25.1 °F 18.1 °F 1014.8 in SSE 5.8 mph 5.8 mph 65 % 0.0 in
21:55 25.0 °F 17.9 °F 1014.8 in SW 5.0 mph 5.0 mph 65 % 0.0 in
22:00 24.9 °F 18.3 °F 1014.8 in SW 5.6 mph 5.6 mph 67 % 0.0 in
22:05 24.8 °F 18.3 °F 1014.8 in WSW 3.7 mph 3.7 mph 67 % 0.0 in
22:10 24.8 °F 18.3 °F 1014.8 in South 3.7 mph 3.7 mph 67 % 0.0 in
22:15 24.7 °F 18.4 °F 1014.8 in WSW 4.2 mph 4.2 mph 68 % 0.0 in
22:20 24.6 °F 18.3 °F 1015.8 in SW 5.6 mph 5.6 mph 68 % 0.0 in
22:25 24.6 °F 18.3 °F 1015.8 in SW 5.6 mph 5.6 mph 68 % 0.0 in
22:30 24.5 °F 18.4 °F 1015.8 in SW 3.9 mph 3.9 mph 69 % 0.0 in
22:35 24.4 °F 18.3 °F 1015.8 in SW 3.7 mph 3.7 mph 69 % 0.0 in
22:40 24.4 °F 18.3 °F 1015.8 in SW 5.6 mph 5.6 mph 69 % 0.0 in
22:41 24.3 °F 18.2 °F 1015.8 in SW 5.6 mph 5.6 mph 69 % 0.0 in
22:45 22.8 °F 18.1 °F 1015.8 in Calm   3.2 mph 75 % 0.0 in
22:46 24.3 °F 18.2 °F 1015.8 in WSW 5.6 mph 5.6 mph 69 % 0.0 in
22:51 24.3 °F 18.2 °F 1015.8 in SW 3.7 mph 3.7 mph 69 % 0.0 in
22:55 22.7 °F 18.2 °F 1014.8 in Calm     76 % 0.0 in
22:56 24.2 °F 18.4 °F 1015.8 in SW 4.2 mph 4.2 mph 70 % 0.0 in
23:01 24.2 °F 18.4 °F 1015.8 in WSW 3.7 mph 3.7 mph 70 % 0.0 in
23:05 22.6 °F 18.2 °F 1014.8 in Calm     76 % 0.0 in
23:06 24.1 °F 18.3 °F 1015.8 in SW 7.4 mph 7.4 mph 70 % 0.0 in
23:11 24.1 °F 18.3 °F 1015.8 in SW 3.7 mph 3.7 mph 70 % 0.0 in
23:15 22.5 °F 18.1 °F 1014.8 in SW 1.6 mph 3.2 mph 76 % 0.0 in
23:16 24.1 °F 18.3 °F 1015.8 in SW 5.6 mph 5.6 mph 70 % 0.0 in
23:18 24.1 °F 18.5 °F 1015.8 in SW 1.9 mph 1.9 mph 71 % 0.0 in
23:23 24.0 °F 18.2 °F 1015.8 in SW 3.7 mph 3.7 mph 70 % 0.0 in
23:25 22.4 °F 18.2 °F 1015.8 in Calm   1.6 mph 77 % 0.0 in
23:28 24.0 °F 18.4 °F 1015.8 in SW 3.7 mph 3.7 mph 71 % 0.0 in
23:33 24.0 °F 18.4 °F 1015.8 in SW 3.2 mph 3.2 mph 71 % 0.0 in
23:35 22.4 °F 18.2 °F 1014.8 in Calm     77 % 0.0 in
23:38 23.9 °F 18.6 °F 1015.8 in WSW 1.9 mph 1.9 mph 72 % 0.0 in
23:43 23.9 °F 18.6 °F 1015.8 in WSW 3.7 mph   72 % 0.0 in
23:45 22.3 °F 18.1 °F 1014.8 in Calm     77 % 0.0 in
23:48 23.8 °F 18.4 °F 1014.8 in SW 3.7 mph 3.7 mph 72 % 0.0 in
23:53 23.8 °F 18.4 °F 1014.8 in WSW 1.9 mph 1.9 mph 72 % 0.0 in
23:55 22.2 °F 18.2 °F 1014.8 in Calm     78 % 0.0 in
23:58 23.8 °F 18.4 °F 1014.8 in SW 3.7 mph 3.7 mph 72 % 0.0 in
Meteo Sesrovires
Elogis d' Weather Underground - 4 mb

Guio original per  Jim McMurry - jmcmurry@mwt.net Adaptat per a la plantilla per  Wim van der Kuil - Leuven-Template.eu

Trobareu la nostra informacio del temps tambe a:

Weather Underground

AWEKAS